Sao Jose, Brazil
Current Conditions -  °F | °C
As of 7:00 PM on Friday 24 Oct 2014 (Local Time) from SBFL Reporting Station
Few Clouds Few Clouds  
Wind Chill: 75°   Ceiling: Unl
Heat Index: 75°   Visibility: 6mi
Dew Point: 64°   Wind: 14mph
Humidity: 69%   Direction: 350°N
Pressure: 29.91"   Gusts: NA
Location:  27.62°S, 48.63°W
Report Text: SBFL 242100Z 35012KT 9999 FEW020 24/18 Q1013
Loading
Personal Weather Stations






























Interactive Weather Map
Tropical Storm Tracking
New forecast layout! Learn more

10-Day Weather Forecast

Advertisements
Track Severe Weather on mobile